createdAt,value
2023-03-03T00:00:01.049Z,25.53
2023-03-03T00:02:41.105Z,21.23
2023-03-03T00:05:09.212Z,29.53
2023-03-03T00:07:36.656Z,27.83
2023-03-03T00:13:02.972Z,29.93
2023-03-03T00:15:31.192Z,23.37
2023-03-03T00:18:00.488Z,26.07
2023-03-03T00:20:33.012Z,23.17
2023-03-03T00:23:10.201Z,21.93
2023-03-03T00:25:37.706Z,24.53
2023-03-03T00:28:09.169Z,23.67
2023-03-03T00:33:33.189Z,25.97
2023-03-03T00:39:20.948Z,24.63
2023-03-03T00:41:50.742Z,23.47
2023-03-03T00:44:40.038Z,24.57
2023-03-03T00:47:31.610Z,23.37
2023-03-03T00:52:56.559Z,23.27
2023-03-03T00:55:24.112Z,26.23
2023-03-03T00:57:51.613Z,23.77
2023-03-03T01:00:22.930Z,23.53
2023-03-03T01:02:51.922Z,24.87
2023-03-03T01:05:20.089Z,23.93
2023-03-03T01:10:40.618Z,24.43
2023-03-03T01:13:09.430Z,21.80
2023-03-03T01:15:37.074Z,24.73
2023-03-03T01:18:04.711Z,22.13
2023-03-03T01:20:32.307Z,23.53
2023-03-03T01:22:59.868Z,21.27
2023-03-03T01:28:31.275Z,22.33
2023-03-03T01:31:01.832Z,21.83
2023-03-03T01:33:29.395Z,22.43
2023-03-03T01:35:56.925Z,23.23
2023-03-03T01:38:24.348Z,25.20
2023-03-03T01:40:56.775Z,22.73
2023-03-03T01:43:24.669Z,26.40
2023-03-03T01:46:38.006Z,21.20
2023-03-03T01:49:11.183Z,21.60
2023-03-03T01:51:42.611Z,23.67
2023-03-03T01:54:13.563Z,24.70
2023-03-03T01:56:41.622Z,24.00
2023-03-03T02:02:12.213Z,20.73
2023-03-03T02:04:41.336Z,23.83
2023-03-03T02:10:12.805Z,24.23
2023-03-03T02:12:43.042Z,25.07
2023-03-03T02:15:18.749Z,24.37
2023-03-03T02:17:47.213Z,24.23
2023-03-03T02:20:18.937Z,23.07
2023-03-03T02:22:52.415Z,22.57
2023-03-03T02:25:23.579Z,23.00
2023-03-03T02:27:53.425Z,26.43
2023-03-03T02:33:24.015Z,25.77
2023-03-03T02:35:53.020Z,28.37
2023-03-03T02:38:24.038Z,24.90
2023-03-03T02:41:00.819Z,24.17
2023-03-03T02:43:34.316Z,28.33
2023-03-03T02:46:02.776Z,24.07
2023-03-03T02:48:30.238Z,20.43
2023-03-03T02:50:57.746Z,27.67
2023-03-03T02:53:25.184Z,26.37
2023-03-03T02:55:53.775Z,28.90
2023-03-03T02:58:21.224Z,26.03
2023-03-03T03:00:50.232Z,25.43
2023-03-03T03:03:22.206Z,26.33
2023-03-03T03:05:50.321Z,25.10
2023-03-03T03:08:20.989Z,25.90
2023-03-03T03:13:51.847Z,23.40
2023-03-03T03:16:21.314Z,29.67
2023-03-03T03:18:50.243Z,24.33
2023-03-03T03:21:17.909Z,28.40
2023-03-03T03:26:34.037Z,26.97
2023-03-03T03:29:01.757Z,24.90
2023-03-03T03:31:31.129Z,25.93
2023-03-03T03:34:00.470Z,28.07
2023-03-03T03:36:29.082Z,26.47
2023-03-03T03:38:57.033Z,30.77
2023-03-03T03:41:24.480Z,23.33
2023-03-03T03:43:51.944Z,30.43
2023-03-03T03:46:19.597Z,29.67
2023-03-03T03:48:48.508Z,29.93
2023-03-03T03:54:08.029Z,27.23
2023-03-03T03:56:37.182Z,31.50
2023-03-03T03:59:06.987Z,30.13
2023-03-03T04:01:34.623Z,28.57
2023-03-03T04:04:04.019Z,34.40
2023-03-03T04:06:31.517Z,32.00
2023-03-03T04:11:57.958Z,43.97
2023-03-03T04:14:26.942Z,45.80
2023-03-03T04:16:55.326Z,55.77
2023-03-03T04:19:24.633Z,53.00
2023-03-03T04:21:52.513Z,48.43
2023-03-03T04:24:20.220Z,54.10
2023-03-03T04:29:49.155Z,56.97
2023-03-03T04:32:18.398Z,57.20
2023-03-03T04:34:53.072Z,54.20
2023-03-03T04:37:26.946Z,60.93
2023-03-03T04:39:54.575Z,59.73
2023-03-03T04:42:23.081Z,62.63
2023-03-03T04:47:39.368Z,52.67
2023-03-03T04:50:10.690Z,60.33
2023-03-03T04:52:38.514Z,53.30
2023-03-03T04:55:10.583Z,59.63
2023-03-03T04:57:38.908Z,50.70
2023-03-03T05:03:09.250Z,58.57
2023-03-03T05:05:38.193Z,60.03
2023-03-03T05:11:07.968Z,56.13
2023-03-03T05:16:35.060Z,57.33
2023-03-03T05:19:02.543Z,59.40
2023-03-03T05:21:31.271Z,60.93
2023-03-03T05:23:58.722Z,62.40
2023-03-03T05:26:26.204Z,63.67
2023-03-03T05:28:53.671Z,59.67
2023-03-03T05:31:21.257Z,60.37
2023-03-03T05:33:48.835Z,53.23
2023-03-03T05:36:16.283Z,55.00
2023-03-03T05:38:45.090Z,60.63
2023-03-03T05:41:12.515Z,66.13
2023-03-03T05:43:40.531Z,64.07
2023-03-03T05:46:08.308Z,56.57
2023-03-03T05:48:35.814Z,57.57
2023-03-03T05:51:03.253Z,57.10
2023-03-03T05:53:31.180Z,54.83
2023-03-03T05:56:00.201Z,55.53
2023-03-03T05:58:31.867Z,64.75
2023-03-03T06:00:59.344Z,59.57
2023-03-03T06:03:26.846Z,59.43
2023-03-03T06:05:54.386Z,50.70
2023-03-03T06:08:21.908Z,46.93
2023-03-03T06:10:49.410Z,60.37
2023-03-03T06:13:18.416Z,51.03
2023-03-03T06:15:45.883Z,49.33
2023-03-03T06:21:11.981Z,46.27
2023-03-03T06:23:39.452Z,43.40
2023-03-03T06:29:05.750Z,39.60
2023-03-03T06:34:30.931Z,45.37
2023-03-03T06:36:58.395Z,45.97
2023-03-03T06:39:25.980Z,46.30
2023-03-03T06:41:53.535Z,44.87
2023-03-03T06:47:21.331Z,41.27
2023-03-03T06:49:48.777Z,48.70
2023-03-03T06:52:20.473Z,48.07
2023-03-03T06:54:50.684Z,51.83
2023-03-03T06:57:23.518Z,55.27
2023-03-03T06:59:53.876Z,44.37
2023-03-03T07:02:23.827Z,49.30
2023-03-03T07:04:51.563Z,46.23
2023-03-03T07:07:21.203Z,45.10
2023-03-03T07:09:50.676Z,37.50
2023-03-03T07:12:22.096Z,42.43
2023-03-03T07:14:55.360Z,46.70
2023-03-03T07:17:25.632Z,47.13
2023-03-03T07:22:41.922Z,44.43
2023-03-03T07:25:21.080Z,45.87
2023-03-03T07:30:31.448Z,43.27
2023-03-03T07:33:00.496Z,37.70
2023-03-03T07:35:36.386Z,34.70
2023-03-03T07:38:03.910Z,35.80
2023-03-03T07:40:36.793Z,39.93
2023-03-03T07:43:23.126Z,34.17
2023-03-03T07:45:51.123Z,38.93
2023-03-03T07:48:25.494Z,32.80
2023-03-03T07:50:53.065Z,35.53
2023-03-03T07:53:26.884Z,36.00
2023-03-03T07:55:54.948Z,29.43
2023-03-03T07:58:24.042Z,27.57
2023-03-03T08:01:25.168Z,31.37
2023-03-03T08:03:54.093Z,26.33
2023-03-03T08:09:49.272Z,29.80
2023-03-03T08:12:32.078Z,34.73
2023-03-03T08:15:13.180Z,36.70
2023-03-03T08:17:41.447Z,36.03
2023-03-03T08:20:40.253Z,38.67
2023-03-03T08:23:07.682Z,43.60
2023-03-03T08:25:35.117Z,39.57
2023-03-03T08:28:02.594Z,39.47
2023-03-03T08:30:30.845Z,29.30
2023-03-03T08:32:58.489Z,31.70
2023-03-03T08:38:30.300Z,24.13
2023-03-03T08:40:57.779Z,25.57
2023-03-03T08:43:25.237Z,23.50
2023-03-03T08:45:54.176Z,22.50
2023-03-03T08:48:22.216Z,25.53
2023-03-03T08:51:14.846Z,29.80
2023-03-03T08:53:43.648Z,29.57
2023-03-03T08:56:11.150Z,29.97
2023-03-03T08:58:41.983Z,29.23
2023-03-03T09:04:11.183Z,21.27
2023-03-03T09:06:39.139Z,29.23
2023-03-03T09:09:08.200Z,28.40
2023-03-03T09:11:35.781Z,30.37
2023-03-03T09:16:53.099Z,21.40
2023-03-03T09:19:24.815Z,23.87
2023-03-03T09:21:54.708Z,21.07
2023-03-03T09:24:29.163Z,25.80
2023-03-03T09:26:58.484Z,27.17
2023-03-03T09:32:37.650Z,27.83
2023-03-03T09:35:35.925Z,25.47
2023-03-03T09:38:13.227Z,25.30
2023-03-03T09:40:53.407Z,29.83
2023-03-03T09:43:26.805Z,25.47
2023-03-03T09:49:04.588Z,26.93
2023-03-03T09:54:48.027Z,22.67
2023-03-03T09:57:18.495Z,23.70
2023-03-03T10:00:02.428Z,20.13
2023-03-03T10:02:48.058Z,20.20
2023-03-03T10:05:16.316Z,18.37
2023-03-03T10:07:51.633Z,24.00
2023-03-03T10:10:27.103Z,25.40
2023-03-03T10:13:07.358Z,19.73
2023-03-03T10:15:41.181Z,21.33
2023-03-03T10:18:16.516Z,22.17
2023-03-03T10:20:54.652Z,23.80
2023-03-03T10:23:28.006Z,22.80
2023-03-03T10:26:03.292Z,22.87
2023-03-03T10:28:54.669Z,28.70
2023-03-03T10:31:33.747Z,24.53
2023-03-03T10:34:11.185Z,24.53
2023-03-03T10:36:47.919Z,22.00
2023-03-03T10:39:27.251Z,26.03
2023-03-03T10:42:05.552Z,27.97
2023-03-03T10:47:50.159Z,25.33
2023-03-03T10:50:22.599Z,28.07
2023-03-03T10:52:54.323Z,24.67
2023-03-03T10:58:46.519Z,28.63
2023-03-03T11:01:24.442Z,25.47
2023-03-03T11:04:04.694Z,31.20
2023-03-03T11:06:39.077Z,30.50
2023-03-03T11:12:21.442Z,29.60
2023-03-03T11:18:02.431Z,29.13
2023-03-03T11:20:37.296Z,33.17
2023-03-03T11:23:18.231Z,33.40
2023-03-03T11:25:50.777Z,36.20
2023-03-03T11:31:14.386Z,34.97
2023-03-03T11:33:51.832Z,30.90
2023-03-03T11:36:22.149Z,34.80
2023-03-03T11:38:54.284Z,33.13
2023-03-03T11:41:30.773Z,30.40
2023-03-03T11:44:04.612Z,34.23
2023-03-03T11:46:38.159Z,38.07
2023-03-03T11:49:08.017Z,42.50
2023-03-03T11:51:45.615Z,39.80
2023-03-03T11:54:19.914Z,43.00
2023-03-03T11:56:48.762Z,35.53
2023-03-03T12:02:46.912Z,35.30
2023-03-03T12:05:26.644Z,39.27
2023-03-03T12:07:58.430Z,35.10
2023-03-03T12:10:29.909Z,36.60
2023-03-03T12:16:01.714Z,37.50
2023-03-03T12:18:40.731Z,36.67
2023-03-03T12:21:18.098Z,34.77
2023-03-03T12:24:04.911Z,39.40
2023-03-03T12:26:35.714Z,33.33
2023-03-03T12:29:07.563Z,39.10
2023-03-03T12:34:28.388Z,41.17
2023-03-03T12:37:05.130Z,36.57
2023-03-03T12:39:43.446Z,38.63
2023-03-03T12:42:15.807Z,39.63
2023-03-03T12:44:47.032Z,41.57
2023-03-03T12:47:19.623Z,42.93
2023-03-03T12:52:55.272Z,40.10
2023-03-03T12:55:27.969Z,39.97
2023-03-03T13:00:59.463Z,40.67
2023-03-03T13:06:33.916Z,41.70
2023-03-03T13:09:17.454Z,40.53
2023-03-03T13:11:54.168Z,37.93
2023-03-03T13:14:31.061Z,41.23
2023-03-03T13:20:02.290Z,45.37
2023-03-03T13:22:38.122Z,36.77
2023-03-03T13:25:10.118Z,43.33
2023-03-03T13:27:40.785Z,42.43
2023-03-03T13:30:17.738Z,38.07
2023-03-03T13:35:56.226Z,39.13
2023-03-03T13:38:26.758Z,32.77
2023-03-03T13:41:01.085Z,36.33
2023-03-03T13:43:31.500Z,35.00
2023-03-03T13:49:08.278Z,37.77
2023-03-03T13:54:58.126Z,36.33
2023-03-03T13:57:35.072Z,37.03
2023-03-03T14:00:10.950Z,35.90
2023-03-03T14:03:04.931Z,35.07
2023-03-03T14:05:38.223Z,30.50
2023-03-03T14:08:12.482Z,30.23
2023-03-03T14:10:45.575Z,30.77
2023-03-03T14:13:14.052Z,28.57
2023-03-03T14:15:47.431Z,32.87
2023-03-03T14:18:25.121Z,33.23
2023-03-03T14:20:53.802Z,29.30
2023-03-03T14:23:24.340Z,29.83
2023-03-03T14:29:07.471Z,29.40
2023-03-03T14:31:40.863Z,25.70
2023-03-03T14:34:34.043Z,27.67
2023-03-03T14:37:20.763Z,28.63
2023-03-03T14:39:52.080Z,27.87
2023-03-03T14:42:33.665Z,29.37
2023-03-03T14:45:05.037Z,25.40
2023-03-03T14:47:32.523Z,26.93
2023-03-03T14:53:15.120Z,23.77
2023-03-03T14:55:44.269Z,25.67
2023-03-03T14:58:33.060Z,22.53
2023-03-03T15:03:59.384Z,23.70
2023-03-03T15:06:34.362Z,24.27
2023-03-03T15:09:33.657Z,24.47
2023-03-03T15:12:01.897Z,22.83
2023-03-03T15:14:36.634Z,27.13
2023-03-03T15:20:06.361Z,21.77
2023-03-03T15:22:47.895Z,24.30
2023-03-03T15:25:22.852Z,22.73
2023-03-03T15:27:52.789Z,25.83
2023-03-03T15:30:26.186Z,23.80
2023-03-03T15:33:01.022Z,22.37
2023-03-03T15:35:38.518Z,18.90
2023-03-03T15:41:19.203Z,23.20
2023-03-03T15:43:53.462Z,26.87
2023-03-03T15:46:28.359Z,22.47
2023-03-03T15:49:03.826Z,22.90
2023-03-03T15:51:53.841Z,21.73
2023-03-03T15:54:46.861Z,23.27
2023-03-03T15:57:19.510Z,20.07
2023-03-03T16:00:07.989Z,23.07
2023-03-03T16:02:50.347Z,24.50
2023-03-03T16:08:25.585Z,20.20
2023-03-03T16:11:00.556Z,28.07
2023-03-03T16:16:34.563Z,25.73
2023-03-03T16:19:08.265Z,23.53
2023-03-03T16:21:50.258Z,26.97
2023-03-03T16:24:26.085Z,25.47
2023-03-03T16:26:56.062Z,29.60
2023-03-03T16:29:34.971Z,22.77
2023-03-03T16:32:06.238Z,27.27
2023-03-03T16:34:38.497Z,20.00
2023-03-03T16:37:13.979Z,23.60
2023-03-03T16:42:48.283Z,22.13
2023-03-03T16:48:30.325Z,21.37
2023-03-03T16:51:10.620Z,26.87
2023-03-03T16:53:47.694Z,23.87
2023-03-03T17:22:27.569Z,40.07
2023-03-03T17:25:05.376Z,33.60
2023-03-03T17:27:41.619Z,33.30
2023-03-03T17:30:15.287Z,31.23
2023-03-03T17:32:54.592Z,34.57
2023-03-03T17:35:34.340Z,37.73
2023-03-03T17:41:06.010Z,38.20
2023-03-03T17:43:39.911Z,44.10
2023-03-03T17:46:22.142Z,35.73
2023-03-03T17:49:07.484Z,38.97
2023-03-03T17:51:46.055Z,38.07
2023-03-03T17:57:30.394Z,40.03
2023-03-03T18:00:27.561Z,37.00
2023-03-03T18:03:16.049Z,31.73
2023-03-03T18:05:55.394Z,40.80
2023-03-03T18:08:42.068Z,39.47
2023-03-03T18:11:16.506Z,36.60
2023-03-03T18:13:56.887Z,46.37
2023-03-03T18:16:33.855Z,34.50
2023-03-03T18:19:13.358Z,41.90
2023-03-03T18:21:45.079Z,38.67
2023-03-03T18:24:28.246Z,36.83
2023-03-03T18:26:56.694Z,42.77
2023-03-03T18:29:27.821Z,40.17
2023-03-03T18:32:05.474Z,39.37
2023-03-03T18:34:38.485Z,37.50
2023-03-03T18:37:10.650Z,39.57
2023-03-03T18:39:48.092Z,40.13
2023-03-03T18:42:37.941Z,42.93
2023-03-03T18:48:09.037Z,39.57
2023-03-03T18:50:38.164Z,44.13
2023-03-03T18:53:23.746Z,41.00
2023-03-03T18:55:52.855Z,47.77
2023-03-03T18:58:32.616Z,37.43
2023-03-03T19:01:02.303Z,39.53
2023-03-03T19:03:34.101Z,37.43
2023-03-03T19:06:02.594Z,48.33
2023-03-03T19:08:45.893Z,43.07
2023-03-03T19:11:33.233Z,34.73
2023-03-03T19:16:58.966Z,31.03
2023-03-03T19:22:31.620Z,34.43
2023-03-03T19:25:08.054Z,36.73
2023-03-03T19:30:54.884Z,33.33
2023-03-03T19:36:37.230Z,31.87
2023-03-03T19:39:18.509Z,29.77
2023-03-03T19:41:53.612Z,35.43
2023-03-03T19:44:31.043Z,34.33
2023-03-03T19:47:01.911Z,30.93
2023-03-03T19:49:43.546Z,29.10
2023-03-03T19:52:17.856Z,30.50
2023-03-03T19:58:00.119Z,35.40
2023-03-03T20:00:33.506Z,36.53
2023-03-03T20:03:39.678Z,36.60
2023-03-03T20:06:17.267Z,31.80
2023-03-03T20:08:51.861Z,33.07
2023-03-03T20:11:35.774Z,34.13
2023-03-03T20:17:18.206Z,37.23
2023-03-03T20:19:51.952Z,28.20
2023-03-03T20:22:26.911Z,30.80
2023-03-03T20:25:02.614Z,29.70
2023-03-03T20:27:45.809Z,26.90
2023-03-03T20:30:20.487Z,26.77
2023-03-03T20:35:55.255Z,30.07
2023-03-03T20:38:27.964Z,30.73
2023-03-03T20:41:03.171Z,24.97
2023-03-03T20:43:41.422Z,32.70
2023-03-03T20:49:11.038Z,28.10
2023-03-03T20:51:42.385Z,26.83
2023-03-03T20:54:16.982Z,30.73
2023-03-03T20:56:48.800Z,31.50
2023-03-03T20:59:23.134Z,24.77
2023-03-03T21:01:54.793Z,30.73
2023-03-03T21:04:24.357Z,28.67
2023-03-03T21:09:49.455Z,27.67
2023-03-03T21:15:28.903Z,36.17
2023-03-03T21:17:58.064Z,26.17
2023-03-03T21:20:28.743Z,32.07
2023-03-03T21:22:56.689Z,29.87
2023-03-03T21:28:24.953Z,27.10
2023-03-03T21:31:14.114Z,28.77
2023-03-03T21:36:47.154Z,27.03
2023-03-03T21:39:22.478Z,28.47
2023-03-03T21:44:43.954Z,24.93
2023-03-03T21:47:15.087Z,26.90
2023-03-03T21:49:43.359Z,28.40
2023-03-03T21:52:11.453Z,22.63
2023-03-03T21:57:41.657Z,19.60
2023-03-03T22:00:10.388Z,21.93
2023-03-03T22:02:39.204Z,18.93
2023-03-03T22:05:07.978Z,19.77
2023-03-03T22:07:35.487Z,17.50
2023-03-03T22:10:02.991Z,21.57
2023-03-03T22:12:30.425Z,19.73
2023-03-03T22:14:57.877Z,17.50
2023-03-03T22:17:25.456Z,18.17
2023-03-03T22:22:56.936Z,16.30
2023-03-03T22:25:24.629Z,16.47
2023-03-03T22:27:52.055Z,20.80
2023-03-03T22:30:19.667Z,21.33
2023-03-03T22:32:47.091Z,18.80
2023-03-03T22:35:14.752Z,18.47
2023-03-03T22:40:42.223Z,21.17
2023-03-03T22:43:11.278Z,18.77
2023-03-03T22:45:38.807Z,21.70
2023-03-03T22:48:06.562Z,19.50
2023-03-03T22:50:39.252Z,15.80
2023-03-03T22:53:06.691Z,17.77
2023-03-03T22:55:36.830Z,19.67
2023-03-03T22:58:07.536Z,20.57
2023-03-03T23:03:37.066Z,14.80
2023-03-03T23:06:05.265Z,14.77
2023-03-03T23:08:32.705Z,14.40
2023-03-03T23:11:02.773Z,12.93
2023-03-03T23:13:32.298Z,21.53
2023-03-03T23:16:00.228Z,15.20
2023-03-03T23:21:30.607Z,18.80
2023-03-03T23:23:58.030Z,17.97
2023-03-03T23:26:58.010Z,14.50
2023-03-03T23:29:26.876Z,11.17
2023-03-03T23:31:54.452Z,10.30
2023-03-03T23:34:21.991Z,9.87
2023-03-03T23:36:49.501Z,13.27
2023-03-03T23:39:17.356Z,16.83
2023-03-03T23:41:45.562Z,16.43
2023-03-03T23:44:13.435Z,14.23
2023-03-03T23:46:42.335Z,13.50
2023-03-03T23:49:09.851Z,9.80
2023-03-03T23:51:37.453Z,14.20
2023-03-03T23:54:05.188Z,12.87
2023-03-03T23:56:32.657Z,20.13
2023-03-03T23:59:00.120Z,17.10
